sensor_id;sensor_type;location;lat;lon;timestamp;pressure;altitude;pressure_sealevel;temperature;humidity
21879;BME280;27908;42.708;23.278;2023-02-23T00:01:57;62878.03;;;4.72;100.00
21879;BME280;27908;42.708;23.278;2023-02-23T00:04:29;62937.53;;;4.66;100.00
21879;BME280;27908;42.708;23.278;2023-02-23T00:06:55;62896.72;;;4.73;100.00
21879;BME280;27908;42.708;23.278;2023-02-23T00:09:20;62912.88;;;4.74;100.00
21879;BME280;27908;42.708;23.278;2023-02-23T00:11:51;62903.69;;;4.63;100.00
21879;BME280;27908;42.708;23.278;2023-02-23T00:14:17;62935.47;;;4.64;100.00
21879;BME280;27908;42.708;23.278;2023-02-23T00:16:43;62895.50;;;4.55;100.00
21879;BME280;27908;42.708;23.278;2023-02-23T00:19:10;62947.28;;;4.42;100.00
21879;BME280;27908;42.708;23.278;2023-02-23T00:21:38;62900.97;;;4.48;100.00
21879;BME280;27908;42.708;23.278;2023-02-23T00:24:07;62839.53;;;4.16;100.00
21879;BME280;27908;42.708;23.278;2023-02-23T00:26:34;62823.31;;;4.07;100.00
21879;BME280;27908;42.708;23.278;2023-02-23T00:29:07;62841.03;;;4.12;100.00
21879;BME280;27908;42.708;23.278;2023-02-23T00:31:33;62809.38;;;4.23;100.00
21879;BME280;27908;42.708;23.278;2023-02-23T00:34:00;62841.78;;;4.32;100.00
21879;BME280;27908;42.708;23.278;2023-02-23T00:36:30;62842.84;;;4.38;100.00
21879;BME280;27908;42.708;23.278;2023-02-23T00:39:00;62868.56;;;4.36;100.00
21879;BME280;27908;42.708;23.278;2023-02-23T00:41:27;62920.22;;;4.55;100.00
21879;BME280;27908;42.708;23.278;2023-02-23T00:44:02;62857.56;;;4.48;100.00
21879;BME280;27908;42.708;23.278;2023-02-23T00:46:29;62908.59;;;4.53;100.00
21879;BME280;27908;42.708;23.278;2023-02-23T00:48:56;62834.88;;;4.48;100.00
21879;BME280;27908;42.708;23.278;2023-02-23T00:51:23;62897.44;;;4.47;100.00
21879;BME280;27908;42.708;23.278;2023-02-23T00:53:54;62860.94;;;4.34;100.00
21879;BME280;27908;42.708;23.278;2023-02-23T00:56:19;62872.09;;;4.37;100.00
21879;BME280;27908;42.708;23.278;2023-02-23T00:58:46;62871.22;;;4.49;100.00
21879;BME280;27908;42.708;23.278;2023-02-23T01:01:12;62897.47;;;4.52;100.00
21879;BME280;27908;42.708;23.278;2023-02-23T01:03:40;62871.22;;;4.49;100.00
21879;BME280;27908;42.708;23.278;2023-02-23T01:06:08;62911.13;;;4.53;100.00
21879;BME280;27908;42.708;23.278;2023-02-23T01:08:38;62861.63;;;4.49;100.00
21879;BME280;27908;42.708;23.278;2023-02-23T01:11:06;62871.28;;;4.56;100.00
21879;BME280;27908;42.708;23.278;2023-02-23T01:13:31;62877.88;;;4.58;100.00
21879;BME280;27908;42.708;23.278;2023-02-23T01:15:57;62907.72;;;4.64;100.00
21879;BME280;27908;42.708;23.278;2023-02-23T01:18:22;62856.31;;;4.68;100.00
21879;BME280;27908;42.708;23.278;2023-02-23T01:20:48;62911.28;;;4.68;100.00
21879;BME280;27908;42.708;23.278;2023-02-23T01:23:15;62904.16;;;4.61;100.00
21879;BME280;27908;42.708;23.278;2023-02-23T01:25:42;62914.22;;;4.59;100.00
21879;BME280;27908;42.708;23.278;2023-02-23T01:28:11;62911.81;;;4.68;100.00
21879;BME280;27908;42.708;23.278;2023-02-23T01:30:38;62942.38;;;4.52;100.00
21879;BME280;27908;42.708;23.278;2023-02-23T01:33:05;62914.06;;;4.46;100.00
21879;BME280;27908;42.708;23.278;2023-02-23T01:35:31;62863.44;;;4.31;100.00
21879;BME280;27908;42.708;23.278;2023-02-23T01:37:57;62879.09;;;4.32;100.00
21879;BME280;27908;42.708;23.278;2023-02-23T01:40:24;62872.03;;;4.32;100.00
21879;BME280;27908;42.708;23.278;2023-02-23T01:43:12;62873.97;;;4.27;100.00
21879;BME280;27908;42.708;23.278;2023-02-23T01:45:39;62847.59;;;4.14;100.00
21879;BME280;27908;42.708;23.278;2023-02-23T01:48:12;62840.00;;;4.11;100.00
21879;BME280;27908;42.708;23.278;2023-02-23T01:50:56;62778.88;;;4.01;100.00
21879;BME280;27908;42.708;23.278;2023-02-23T01:53:24;62994.78;;;4.12;100.00
21879;BME280;27908;42.708;23.278;2023-02-23T01:55:53;62788.97;;;4.01;100.00
21879;BME280;27908;42.708;23.278;2023-02-23T01:58:21;62872.25;;;4.11;100.00
21879;BME280;27908;42.708;23.278;2023-02-23T02:00:57;62810.22;;;4.07;100.00
21879;BME280;27908;42.708;23.278;2023-02-23T02:03:38;62848.59;;;4.12;100.00
21879;BME280;27908;42.708;23.278;2023-02-23T02:06:07;62867.69;;;4.09;100.00
21879;BME280;27908;42.708;23.278;2023-02-23T02:08:35;62824.81;;;4.04;100.00
21879;BME280;27908;42.708;23.278;2023-02-23T02:11:10;62825.72;;;3.97;100.00
21879;BME280;27908;42.708;23.278;2023-02-23T02:13:52;62847.88;;;3.94;100.00
21879;BME280;27908;42.708;23.278;2023-02-23T02:33:30;62829.00;;;3.79;100.00
21879;BME280;27908;42.708;23.278;2023-02-23T02:41:27;62786.13;;;3.71;100.00
21879;BME280;27908;42.708;23.278;2023-02-23T02:46:39;62813.91;;;3.79;100.00
21879;BME280;27908;42.708;23.278;2023-02-23T02:52:15;62891.41;;;3.73;100.00
21879;BME280;27908;42.708;23.278;2023-02-23T02:54:48;62841.19;;;3.86;100.00
21879;BME280;27908;42.708;23.278;2023-02-23T02:57:19;62793.84;;;3.86;100.00
21879;BME280;27908;42.708;23.278;2023-02-23T02:59:48;62821.06;;;3.88;100.00
21879;BME280;27908;42.708;23.278;2023-02-23T03:02:35;62795.75;;;3.78;100.00
21879;BME280;27908;42.708;23.278;2023-02-23T03:05:23;62845.75;;;3.88;100.00
21879;BME280;27908;42.708;23.278;2023-02-23T03:11:39;62829.94;;;3.72;100.00
21879;BME280;27908;42.708;23.278;2023-02-23T03:14:43;62763.28;;;3.59;100.00
21879;BME280;27908;42.708;23.278;2023-02-23T03:17:42;62789.25;;;3.43;100.00
21879;BME280;27908;42.708;23.278;2023-02-23T03:26:28;62744.91;;;3.39;100.00
21879;BME280;27908;42.708;23.278;2023-02-23T03:32:19;62755.19;;;3.15;100.00
21879;BME280;27908;42.708;23.278;2023-02-23T03:35:11;62711.78;;;3.04;100.00
21879;BME280;27908;42.708;23.278;2023-02-23T03:38:06;62756.38;;;2.91;100.00
21879;BME280;27908;42.708;23.278;2023-02-23T03:40:52;62676.75;;;2.80;100.00
21879;BME280;27908;42.708;23.278;2023-02-23T03:43:41;62705.56;;;2.91;100.00
21879;BME280;27908;42.708;23.278;2023-02-23T03:46:28;62697.97;;;2.88;100.00
21879;BME280;27908;42.708;23.278;2023-02-23T03:49:14;62695.03;;;2.93;100.00
21879;BME280;27908;42.708;23.278;2023-02-23T03:52:25;62680.72;;;2.77;100.00
21879;BME280;27908;42.708;23.278;2023-02-23T03:55:20;62698.47;;;2.86;100.00
21879;BME280;27908;42.708;23.278;2023-02-23T03:58:09;62719.03;;;2.82;100.00
21879;BME280;27908;42.708;23.278;2023-02-23T04:00:57;62687.69;;;2.71;100.00
21879;BME280;27908;42.708;23.278;2023-02-23T04:03:45;62703.81;;;2.72;100.00
21879;BME280;27908;42.708;23.278;2023-02-23T04:06:34;62825.00;;;2.73;100.00
21879;BME280;27908;42.708;23.278;2023-02-23T04:09:19;62670.53;;;2.67;100.00
21879;BME280;27908;42.708;23.278;2023-02-23T04:15:24;62701.81;;;2.73;100.00
21879;BME280;27908;42.708;23.278;2023-02-23T04:17:52;62701.25;;;2.70;100.00
21879;BME280;27908;42.708;23.278;2023-02-23T04:20:18;62689.34;;;2.80;100.00
21879;BME280;27908;42.708;23.278;2023-02-23T04:22:44;62693.81;;;2.77;100.00
21879;BME280;27908;42.708;23.278;2023-02-23T04:25:10;62706.41;;;2.80;100.00
21879;BME280;27908;42.708;23.278;2023-02-23T04:27:36;62661.78;;;2.51;100.00
21879;BME280;27908;42.708;23.278;2023-02-23T04:30:02;62684.38;;;2.48;100.00
21879;BME280;27908;42.708;23.278;2023-02-23T04:32:28;62705.59;;;2.57;100.00
21879;BME280;27908;42.708;23.278;2023-02-23T04:34:54;62677.47;;;2.59;100.00
21879;BME280;27908;42.708;23.278;2023-02-23T04:37:19;62654.81;;;2.56;100.00
21879;BME280;27908;42.708;23.278;2023-02-23T04:39:44;62680.00;;;2.59;100.00
21879;BME280;27908;42.708;23.278;2023-02-23T04:42:15;62693.06;;;2.59;100.00
21879;BME280;27908;42.708;23.278;2023-02-23T04:44:40;62677.56;;;2.64;100.00
21879;BME280;27908;42.708;23.278;2023-02-23T04:47:06;62697.00;;;2.53;100.00
21879;BME280;27908;42.708;23.278;2023-02-23T04:49:31;62680.97;;;2.57;100.00
21879;BME280;27908;42.708;23.278;2023-02-23T04:51:57;62641.06;;;2.43;100.00
21879;BME280;27908;42.708;23.278;2023-02-23T04:54:22;62639.75;;;2.56;100.00
21879;BME280;27908;42.708;23.278;2023-02-23T04:56:47;62660.28;;;2.49;100.00
21879;BME280;27908;42.708;23.278;2023-02-23T04:59:13;62637.28;;;2.22;100.00
21879;BME280;27908;42.708;23.278;2023-02-23T05:01:38;62632.56;;;2.08;100.00
21879;BME280;27908;42.708;23.278;2023-02-23T05:04:04;62625.47;;;2.01;100.00
21879;BME280;27908;42.708;23.278;2023-02-23T05:06:30;62645.56;;;2.01;100.00
21879;BME280;27908;42.708;23.278;2023-02-23T05:08:55;62641.81;;;2.22;100.00
21879;BME280;27908;42.708;23.278;2023-02-23T05:11:21;62638.44;;;2.33;100.00
21879;BME280;27908;42.708;23.278;2023-02-23T05:13:47;62654.13;;;2.41;100.00
21879;BME280;27908;42.708;23.278;2023-02-23T05:16:12;62635.03;;;2.42;100.00
21879;BME280;27908;42.708;23.278;2023-02-23T05:18:37;62648.63;;;2.43;100.00
21879;BME280;27908;42.708;23.278;2023-02-23T05:21:05;62654.50;;;2.32;100.00
21879;BME280;27908;42.708;23.278;2023-02-23T05:23:36;62627.66;;;2.15;100.00
21879;BME280;27908;42.708;23.278;2023-02-23T05:26:05;62625.38;;;1.96;100.00
21879;BME280;27908;42.708;23.278;2023-02-23T05:28:33;62650.56;;;2.01;100.00
21879;BME280;27908;42.708;23.278;2023-02-23T05:31:00;62578.78;;;2.05;100.00
21879;BME280;27908;42.708;23.278;2023-02-23T05:33:28;62616.97;;;2.05;100.00
21879;BME280;27908;42.708;23.278;2023-02-23T05:35:53;62608.75;;;1.92;100.00
21879;BME280;27908;42.708;23.278;2023-02-23T05:38:19;62618.13;;;2.16;100.00
21879;BME280;27908;42.708;23.278;2023-02-23T05:40:45;62628.09;;;2.11;100.00
21879;BME280;27908;42.708;23.278;2023-02-23T05:43:11;62632.84;;;2.28;100.00
21879;BME280;27908;42.708;23.278;2023-02-23T05:45:40;62669.09;;;2.34;100.00
21879;BME280;27908;42.708;23.278;2023-02-23T05:48:06;62659.53;;;2.32;100.00
21879;BME280;27908;42.708;23.278;2023-02-23T05:50:32;62659.44;;;2.27;100.00
21879;BME280;27908;42.708;23.278;2023-02-23T05:52:57;62624.91;;;2.37;100.00
21879;BME280;27908;42.708;23.278;2023-02-23T05:55:23;62660.19;;;2.45;100.00
21879;BME280;27908;42.708;23.278;2023-02-23T05:57:48;62665.78;;;2.47;100.00
21879;BME280;27908;42.708;23.278;2023-02-23T06:00:15;62672.31;;;2.49;100.00
21879;BME280;27908;42.708;23.278;2023-02-23T06:02:40;62660.28;;;2.49;100.00
21879;BME280;27908;42.708;23.278;2023-02-23T06:05:07;62701.31;;;2.75;100.00
21879;BME280;27908;42.708;23.278;2023-02-23T06:07:32;62697.88;;;2.81;100.00
21879;BME280;27908;42.708;23.278;2023-02-23T06:09:58;62723.28;;;3.01;100.00
21879;BME280;27908;42.708;23.278;2023-02-23T06:12:23;62732.53;;;3.15;100.00
21879;BME280;27908;42.708;23.278;2023-02-23T06:14:49;62722.50;;;3.17;100.00
21879;BME280;27908;42.708;23.278;2023-02-23T06:17:15;62765.38;;;3.24;100.00
21879;BME280;27908;42.708;23.278;2023-02-23T06:19:41;62760.53;;;3.39;100.00
21879;BME280;27908;42.708;23.278;2023-02-23T06:22:06;62755.53;;;3.42;100.00
21879;BME280;27908;42.708;23.278;2023-02-23T06:24:31;62794.19;;;3.74;100.00
21879;BME280;27908;42.708;23.278;2023-02-23T06:26:58;62822.00;;;3.82;100.00
21879;BME280;27908;42.708;23.278;2023-02-23T06:29:24;62785.44;;;4.00;100.00
21879;BME280;27908;42.708;23.278;2023-02-23T06:31:49;62860.16;;;4.11;100.00
21879;BME280;27908;42.708;23.278;2023-02-23T06:34:15;62855.19;;;4.16;100.00
21879;BME280;27908;42.708;23.278;2023-02-23T06:36:40;62881.19;;;4.39;100.00
21879;BME280;27908;42.708;23.278;2023-02-23T06:39:06;62892.31;;;4.42;100.00
21879;BME280;27908;42.708;23.278;2023-02-23T06:41:32;62901.03;;;4.53;100.00
21879;BME280;27908;42.708;23.278;2023-02-23T06:43:57;62849.03;;;4.49;100.00
21879;BME280;27908;42.708;23.278;2023-02-23T06:46:23;62847.97;;;4.46;100.00
21879;BME280;27908;42.708;23.278;2023-02-23T06:48:48;62920.38;;;4.67;100.00
21879;BME280;27908;42.708;23.278;2023-02-23T06:51:14;62901.34;;;4.80;100.00
21879;BME280;27908;42.708;23.278;2023-02-23T06:53:39;62942.81;;;4.86;100.00
21879;BME280;27908;42.708;23.278;2023-02-23T06:56:05;62960.25;;;5.10;100.00
21879;BME280;27908;42.708;23.278;2023-02-23T06:58:31;62947.19;;;5.15;100.00
21879;BME280;27908;42.708;23.278;2023-02-23T07:00:56;62991.28;;;5.28;100.00
21879;BME280;27908;42.708;23.278;2023-02-23T07:03:24;62991.44;;;5.43;100.00
21879;BME280;27908;42.708;23.278;2023-02-23T07:05:50;62991.03;;;5.50;100.00
21879;BME280;27908;42.708;23.278;2023-02-23T07:08:16;62984.03;;;5.58;100.00
21879;BME280;27908;42.708;23.278;2023-02-23T07:10:43;63064.69;;;5.82;100.00
21879;BME280;27908;42.708;23.278;2023-02-23T07:13:08;63052.59;;;5.85;100.00
21879;BME280;27908;42.708;23.278;2023-02-23T07:15:35;63044.22;;;6.03;100.00
21879;BME280;27908;42.708;23.278;2023-02-23T07:18:01;63073.53;;;6.03;100.00
21879;BME280;27908;42.708;23.278;2023-02-23T07:20:26;63094.00;;;6.22;100.00
21879;BME280;27908;42.708;23.278;2023-02-23T07:22:52;63125.03;;;6.38;100.00
21879;BME280;27908;42.708;23.278;2023-02-23T07:25:19;63129.25;;;6.51;100.00
21879;BME280;27908;42.708;23.278;2023-02-23T07:27:45;63153.63;;;6.60;100.00
21879;BME280;27908;42.708;23.278;2023-02-23T07:30:11;63144.19;;;6.75;100.00
21879;BME280;27908;42.708;23.278;2023-02-23T07:32:36;63151.75;;;6.73;100.00
21879;BME280;27908;42.708;23.278;2023-02-23T07:35:03;63217.69;;;6.83;100.00
21879;BME280;27908;42.708;23.278;2023-02-23T07:37:28;63176.69;;;6.85;100.00
21879;BME280;27908;42.708;23.278;2023-02-23T07:39:54;63156.66;;;7.05;99.32
21879;BME280;27908;42.708;23.278;2023-02-23T07:42:19;63167.41;;;7.15;99.57
21879;BME280;27908;42.708;23.278;2023-02-23T07:44:45;63215.16;;;7.27;99.44
21879;BME280;27908;42.708;23.278;2023-02-23T07:47:10;63254.38;;;7.43;97.83
21879;BME280;27908;42.708;23.278;2023-02-23T07:49:35;63272.78;;;7.58;97.29
21879;BME280;27908;42.708;23.278;2023-02-23T07:52:01;63286.13;;;7.71;95.81
21879;BME280;27908;42.708;23.278;2023-02-23T07:54:26;63316.00;;;7.70;94.13
21879;BME280;27908;42.708;23.278;2023-02-23T07:56:52;63279.75;;;7.91;93.72
21879;BME280;27908;42.708;23.278;2023-02-23T07:59:18;63275.81;;;8.05;93.40
21879;BME280;27908;42.708;23.278;2023-02-23T08:01:43;63293.69;;;8.15;91.97
21879;BME280;27908;42.708;23.278;2023-02-23T08:04:09;63340.63;;;8.38;91.44
21879;BME280;27908;42.708;23.278;2023-02-23T08:06:35;63371.72;;;8.51;89.83
21879;BME280;27908;42.708;23.278;2023-02-23T08:09:01;63395.22;;;8.63;89.03
21879;BME280;27908;42.708;23.278;2023-02-23T08:11:27;63414.56;;;8.65;87.78
21879;BME280;27908;42.708;23.278;2023-02-23T08:13:56;63370.44;;;8.74;86.62
21879;BME280;27908;42.708;23.278;2023-02-23T08:16:29;63406.56;;;8.77;85.70
21879;BME280;27908;42.708;23.278;2023-02-23T08:18:56;63373.03;;;8.79;86.45
21879;BME280;27908;42.708;23.278;2023-02-23T08:21:25;63402.13;;;8.92;85.40
21879;BME280;27908;42.708;23.278;2023-02-23T08:23:52;63414.41;;;8.99;85.86
21879;BME280;27908;42.708;23.278;2023-02-23T08:26:17;63442.13;;;9.25;85.12
21879;BME280;27908;42.708;23.278;2023-02-23T08:28:43;63475.28;;;9.38;84.07
21879;BME280;27908;42.708;23.278;2023-02-23T08:31:12;63479.41;;;9.42;82.63
21879;BME280;27908;42.708;23.278;2023-02-23T08:33:37;63458.69;;;9.56;81.60
21879;BME280;27908;42.708;23.278;2023-02-23T08:36:04;63503.41;;;9.53;81.11
21879;BME280;27908;42.708;23.278;2023-02-23T08:38:30;63473.59;;;9.73;79.76
21879;BME280;27908;42.708;23.278;2023-02-23T08:40:59;63529.78;;;9.93;80.65
21879;BME280;27908;42.708;23.278;2023-02-23T08:43:25;63574.16;;;10.01;78.09
21879;BME280;27908;42.708;23.278;2023-02-23T08:45:50;63561.00;;;10.08;78.25
21879;BME280;27908;42.708;23.278;2023-02-23T08:48:15;63568.19;;;10.17;77.63
21879;BME280;27908;42.708;23.278;2023-02-23T08:50:41;63581.53;;;10.28;76.90
21879;BME280;27908;42.708;23.278;2023-02-23T08:53:07;63617.84;;;10.40;75.98
21879;BME280;27908;42.708;23.278;2023-02-23T08:55:33;63653.09;;;10.50;74.53
21879;BME280;27908;42.708;23.278;2023-02-23T08:57:59;63630.09;;;10.42;75.68
21879;BME280;27908;42.708;23.278;2023-02-23T09:00:25;63612.41;;;10.57;75.21
21879;BME280;27908;42.708;23.278;2023-02-23T09:02:50;63692.59;;;10.73;74.26
21879;BME280;27908;42.708;23.278;2023-02-23T09:05:16;63695.28;;;10.88;74.22
21879;BME280;27908;42.708;23.278;2023-02-23T09:07:44;63639.34;;;10.51;72.85
21879;BME280;27908;42.708;23.278;2023-02-23T09:10:17;63714.34;;;11.08;73.17
21879;BME280;27908;42.708;23.278;2023-02-23T09:12:44;63747.69;;;11.26;72.58
21879;BME280;27908;42.708;23.278;2023-02-23T09:15:10;63772.88;;;11.45;71.69
21879;BME280;27908;42.708;23.278;2023-02-23T09:17:36;63743.84;;;11.51;69.98
21879;BME280;27908;42.708;23.278;2023-02-23T09:20:01;63784.38;;;11.71;68.71
21879;BME280;27908;42.708;23.278;2023-02-23T09:22:27;63789.97;;;11.69;67.75
21879;BME280;27908;42.708;23.278;2023-02-23T09:24:53;63813.19;;;11.93;67.91
21879;BME280;27908;42.708;23.278;2023-02-23T09:27:18;63837.31;;;12.07;67.35
21879;BME280;27908;42.708;23.278;2023-02-23T09:29:43;63811.22;;;12.01;66.47
21879;BME280;27908;42.708;23.278;2023-02-23T09:32:09;63812.69;;;11.93;66.07
21879;BME280;27908;42.708;23.278;2023-02-23T09:34:35;63808.66;;;11.99;66.19
21879;BME280;27908;42.708;23.278;2023-02-23T09:37:01;63871.03;;;12.05;65.70
21879;BME280;27908;42.708;23.278;2023-02-23T09:39:27;63887.56;;;12.23;66.32
21879;BME280;27908;42.708;23.278;2023-02-23T09:41:57;63951.16;;;12.47;65.56
21879;BME280;27908;42.708;23.278;2023-02-23T09:49:56;64018.03;;;13.33;62.77
21879;BME280;27908;42.708;23.278;2023-02-23T09:52:26;64031.28;;;13.26;60.76
21879;BME280;27908;42.708;23.278;2023-02-23T09:54:52;64014.47;;;13.34;61.67
21879;BME280;27908;42.708;23.278;2023-02-23T09:57:22;64052.50;;;13.49;60.79
21879;BME280;27908;42.708;23.278;2023-02-23T09:59:50;64057.31;;;13.73;59.62
21879;BME280;27908;42.708;23.278;2023-02-23T10:02:27;64057.38;;;13.80;58.75
21879;BME280;27908;42.708;23.278;2023-02-23T10:05:02;64055.72;;;13.64;58.20
21879;BME280;27908;42.708;23.278;2023-02-23T10:07:48;64143.16;;;13.98;58.62
21879;BME280;27908;42.708;23.278;2023-02-23T10:10:21;64196.75;;;14.25;57.64
21879;BME280;27908;42.708;23.278;2023-02-23T10:18:31;64330.13;;;15.23;55.74
21879;BME280;27908;42.708;23.278;2023-02-23T10:26:20;64578.34;;;15.70;54.23
21879;BME280;27908;42.708;23.278;2023-02-23T10:28:47;64566.88;;;16.01;54.00
21879;BME280;27908;42.708;23.278;2023-02-23T10:31:36;64513.66;;;16.24;50.91
21879;BME280;27908;42.708;23.278;2023-02-23T10:34:12;64475.63;;;16.27;50.51
21879;BME280;27908;42.708;23.278;2023-02-23T10:36:43;64530.66;;;16.28;49.78
21879;BME280;27908;42.708;23.278;2023-02-23T10:39:12;64490.19;;;16.45;50.82
21879;BME280;27908;42.708;23.278;2023-02-23T10:41:38;64590.28;;;16.67;49.57
21879;BME280;27908;42.708;23.278;2023-02-23T10:44:14;64597.22;;;16.91;49.58
21879;BME280;27908;42.708;23.278;2023-02-23T10:46:42;64658.34;;;17.22;49.02
21879;BME280;27908;42.708;23.278;2023-02-23T10:49:17;64689.41;;;17.34;48.48
21879;BME280;27908;42.708;23.278;2023-02-23T10:51:43;64734.22;;;17.81;48.21
21879;BME280;27908;42.708;23.278;2023-02-23T10:54:44;64834.66;;;18.13;46.68
21879;BME280;27908;42.708;23.278;2023-02-23T11:02:43;64983.94;;;19.05;44.25
21879;BME280;27908;42.708;23.278;2023-02-23T11:13:42;64932.81;;;18.64;43.25
21879;BME280;27908;42.708;23.278;2023-02-23T11:16:14;65023.94;;;19.24;43.29
21879;BME280;27908;42.708;23.278;2023-02-23T11:18:47;65086.34;;;19.53;42.56
21879;BME280;27908;42.708;23.278;2023-02-23T11:21:21;65126.31;;;19.66;41.76
21879;BME280;27908;42.708;23.278;2023-02-23T11:23:50;65059.25;;;19.37;41.89
21879;BME280;27908;42.708;23.278;2023-02-23T11:26:40;65016.41;;;18.97;41.98
21879;BME280;27908;42.708;23.278;2023-02-23T11:31:53;64843.56;;;18.26;42.57
21879;BME280;27908;42.708;23.278;2023-02-23T11:34:32;64893.38;;;18.49;43.19
21879;BME280;27908;42.708;23.278;2023-02-23T11:37:04;65027.56;;;18.81;43.16
21879;BME280;27908;42.708;23.278;2023-02-23T11:39:30;64983.81;;;18.95;42.93
21879;BME280;27908;42.708;23.278;2023-02-23T11:42:14;65002.59;;;19.11;43.47
21879;BME280;27908;42.708;23.278;2023-02-23T11:44:41;65043.19;;;19.34;42.10
21879;BME280;27908;42.708;23.278;2023-02-23T11:47:15;65030.03;;;19.15;42.11
21879;BME280;27908;42.708;23.278;2023-02-23T11:49:44;65059.88;;;19.45;42.51
21879;BME280;27908;42.708;23.278;2023-02-23T11:52:18;65105.59;;;19.64;41.71
21879;BME280;27908;42.708;23.278;2023-02-23T11:55:01;65106.69;;;19.67;41.24
21879;BME280;27908;42.708;23.278;2023-02-23T11:57:29;65019.72;;;19.15;41.97
21879;BME280;27908;42.708;23.278;2023-02-23T11:59:56;64961.94;;;18.82;42.38
21879;BME280;27908;42.708;23.278;2023-02-23T12:02:30;65015.00;;;19.10;42.09
21879;BME280;27908;42.708;23.278;2023-02-23T12:15:33;65144.91;;;20.06;40.59
21879;BME280;27908;42.708;23.278;2023-02-23T12:18:07;65183.91;;;20.21;40.51
21879;BME280;27908;42.708;23.278;2023-02-23T12:20:40;65206.59;;;20.10;40.09
21879;BME280;27908;42.708;23.278;2023-02-23T12:23:17;65152.63;;;20.01;40.12
21879;BME280;27908;42.708;23.278;2023-02-23T12:25:48;65146.06;;;19.73;40.02
21879;BME280;27908;42.708;23.278;2023-02-23T12:28:30;65049.94;;;19.36;40.97
21879;BME280;27908;42.708;23.278;2023-02-23T12:31:05;65103.31;;;19.45;40.59
21879;BME280;27908;42.708;23.278;2023-02-23T12:33:45;65103.91;;;19.53;40.79
21879;BME280;27908;42.708;23.278;2023-02-23T12:38:48;64997.41;;;19.08;40.81
21879;BME280;27908;42.708;23.278;2023-02-23T12:41:32;64873.59;;;18.33;42.15
21879;BME280;27908;42.708;23.278;2023-02-23T12:44:19;64836.31;;;18.22;42.46
21879;BME280;27908;42.708;23.278;2023-02-23T12:46:50;64811.38;;;18.08;43.24
21879;BME280;27908;42.708;23.278;2023-02-23T12:52:35;64844.53;;;18.17;43.28
21879;BME280;27908;42.708;23.278;2023-02-23T12:55:08;64913.47;;;18.44;43.23
21879;BME280;27908;42.708;23.278;2023-02-23T12:57:52;64834.97;;;18.43;43.02
21879;BME280;27908;42.708;23.278;2023-02-23T13:11:23;65033.56;;;19.06;40.98
21879;BME280;27908;42.708;23.278;2023-02-23T13:14:11;64968.66;;;18.81;41.68
21879;BME280;27908;42.708;23.278;2023-02-23T13:16:47;65002.81;;;18.87;41.51
21879;BME280;27908;42.708;23.278;2023-02-23T13:24:34;65084.00;;;19.31;41.45
21879;BME280;27908;42.708;23.278;2023-02-23T13:29:38;64991.09;;;19.00;42.06
21879;BME280;27908;42.708;23.278;2023-02-23T13:32:10;64994.28;;;19.08;42.67
21879;BME280;27908;42.708;23.278;2023-02-23T13:34:55;65054.38;;;19.18;42.45
21879;BME280;27908;42.708;23.278;2023-02-23T13:37:30;64977.16;;;19.01;42.14
21879;BME280;27908;42.708;23.278;2023-02-23T13:43:05;64992.66;;;19.01;41.91
21879;BME280;27908;42.708;23.278;2023-02-23T13:48:34;64939.00;;;18.63;42.55
21879;BME280;27908;42.708;23.278;2023-02-23T13:51:11;64927.59;;;18.59;42.70
21879;BME280;27908;42.708;23.278;2023-02-23T13:53:42;64914.03;;;18.47;42.75
21879;BME280;27908;42.708;23.278;2023-02-23T13:56:21;64929.66;;;18.59;42.81
21879;BME280;27908;42.708;23.278;2023-02-23T13:58:54;64857.06;;;18.32;42.91
21879;BME280;27908;42.708;23.278;2023-02-23T14:01:35;64853.94;;;18.29;42.88
21879;BME280;27908;42.708;23.278;2023-02-23T14:04:11;64898.88;;;18.30;43.61
21879;BME280;27908;42.708;23.278;2023-02-23T14:06:39;64908.19;;;18.34;43.52
21879;BME280;27908;42.708;23.278;2023-02-23T14:09:11;64849.63;;;18.13;43.20
21879;BME280;27908;42.708;23.278;2023-02-23T14:11:44;64857.91;;;18.13;43.54
21879;BME280;27908;42.708;23.278;2023-02-23T14:14:13;64798.34;;;17.96;43.35
21879;BME280;27908;42.708;23.278;2023-02-23T14:16:41;64767.59;;;17.67;43.79
21879;BME280;27908;42.708;23.278;2023-02-23T14:19:34;64759.97;;;17.77;44.14
21879;BME280;27908;42.708;23.278;2023-02-23T14:22:05;64754.69;;;17.64;44.06
21879;BME280;27908;42.708;23.278;2023-02-23T14:24:34;64723.53;;;17.47;43.76
21879;BME280;27908;42.708;23.278;2023-02-23T14:29:37;64713.03;;;17.27;47.53
21879;BME280;27908;42.708;23.278;2023-02-23T14:37:30;64588.88;;;16.80;51.16
21879;BME280;27908;42.708;23.278;2023-02-23T14:40:12;64524.25;;;16.56;51.55
21879;BME280;27908;42.708;23.278;2023-02-23T14:42:40;64560.66;;;16.39;52.70
21879;BME280;27908;42.708;23.278;2023-02-23T14:47:45;64511.34;;;16.02;53.72
21879;BME280;27908;42.708;23.278;2023-02-23T14:50:18;64432.53;;;15.88;54.10
21879;BME280;27908;42.708;23.278;2023-02-23T14:52:49;64415.50;;;15.82;54.78
21879;BME280;27908;42.708;23.278;2023-02-23T14:55:20;64411.63;;;15.54;55.83
21879;BME280;27908;42.708;23.278;2023-02-23T14:57:46;64396.69;;;15.52;56.47
21879;BME280;27908;42.708;23.278;2023-02-23T15:00:21;64359.03;;;15.35;56.74
21879;BME280;27908;42.708;23.278;2023-02-23T15:03:03;64329.31;;;15.44;56.54
21879;BME280;27908;42.708;23.278;2023-02-23T15:05:32;64392.94;;;15.36;56.64
21879;BME280;27908;42.708;23.278;2023-02-23T15:08:00;64337.38;;;15.27;55.42
21879;BME280;27908;42.708;23.278;2023-02-23T15:10:34;64375.91;;;15.27;54.86
21879;BME280;27908;42.708;23.278;2023-02-23T15:13:09;64313.13;;;15.16;55.39
21879;BME280;27908;42.708;23.278;2023-02-23T15:15:35;64343.31;;;15.08;55.13
21879;BME280;27908;42.708;23.278;2023-02-23T15:18:03;64361.59;;;14.89;55.40